sensor_id;sensor_type;location;lat;lon;timestamp;pressure;altitude;pressure_sealevel;temperature
17142;BMP180;32805;53.556;9.944;2022-10-31T00:01:25;101620.00;;;14.60
17142;BMP180;32805;53.556;9.944;2022-10-31T00:03:53;101625.00;;;14.70
17142;BMP180;32805;53.556;9.944;2022-10-31T00:06:22;101627.00;;;14.60
17142;BMP180;32805;53.556;9.944;2022-10-31T00:08:52;101630.00;;;14.50
17142;BMP180;32805;53.556;9.944;2022-10-31T00:11:22;101631.00;;;14.40
17142;BMP180;32805;53.556;9.944;2022-10-31T00:13:50;101636.00;;;14.50
17142;BMP180;32805;53.556;9.944;2022-10-31T00:16:21;101637.00;;;14.40
17142;BMP180;32805;53.556;9.944;2022-10-31T00:18:49;101629.00;;;14.50
17142;BMP180;32805;53.556;9.944;2022-10-31T00:21:17;101631.00;;;14.40
17142;BMP180;32805;53.556;9.944;2022-10-31T00:23:45;101637.00;;;14.40
17142;BMP180;32805;53.556;9.944;2022-10-31T00:26:13;101625.00;;;14.40
17142;BMP180;32805;53.556;9.944;2022-10-31T00:28:42;101634.00;;;14.40
17142;BMP180;32805;53.556;9.944;2022-10-31T00:31:11;101637.00;;;14.40
17142;BMP180;32805;53.556;9.944;2022-10-31T00:33:40;101647.00;;;14.30
17142;BMP180;32805;53.556;9.944;2022-10-31T00:36:14;101637.00;;;14.40
17142;BMP180;32805;53.556;9.944;2022-10-31T00:38:43;101641.00;;;14.30
17142;BMP180;32805;53.556;9.944;2022-10-31T00:41:12;101646.00;;;14.20
17142;BMP180;32805;53.556;9.944;2022-10-31T00:43:41;101636.00;;;14.20
17142;BMP180;32805;53.556;9.944;2022-10-31T00:46:09;101623.00;;;14.50
17142;BMP180;32805;53.556;9.944;2022-10-31T00:48:37;101613.00;;;14.60
17142;BMP180;32805;53.556;9.944;2022-10-31T00:51:05;101616.00;;;14.50
17142;BMP180;32805;53.556;9.944;2022-10-31T00:53:33;101619.00;;;14.30
17142;BMP180;32805;53.556;9.944;2022-10-31T00:56:02;101637.00;;;14.20
17142;BMP180;32805;53.556;9.944;2022-10-31T00:58:30;101644.00;;;14.10
17142;BMP180;32805;53.556;9.944;2022-10-31T01:00:59;101630.00;;;14.10
17142;BMP180;32805;53.556;9.944;2022-10-31T01:03:29;101641.00;;;14.30
17142;BMP180;32805;53.556;9.944;2022-10-31T01:05:59;101651.00;;;14.10
17142;BMP180;32805;53.556;9.944;2022-10-31T01:08:27;101652.00;;;14.30
17142;BMP180;32805;53.556;9.944;2022-10-31T01:10:59;101655.00;;;14.30
17142;BMP180;32805;53.556;9.944;2022-10-31T01:13:27;101656.00;;;14.30
17142;BMP180;32805;53.556;9.944;2022-10-31T01:15:56;101662.00;;;14.40
17142;BMP180;32805;53.556;9.944;2022-10-31T01:18:26;101664.00;;;14.30
17142;BMP180;32805;53.556;9.944;2022-10-31T01:21:02;101667.00;;;14.40
17142;BMP180;32805;53.556;9.944;2022-10-31T01:23:30;101674.00;;;14.50
17142;BMP180;32805;53.556;9.944;2022-10-31T01:26:04;101680.00;;;14.30
17142;BMP180;32805;53.556;9.944;2022-10-31T01:28:33;101678.00;;;14.30
17142;BMP180;32805;53.556;9.944;2022-10-31T01:31:02;101680.00;;;14.30
17142;BMP180;32805;53.556;9.944;2022-10-31T01:33:31;101677.00;;;14.50
17142;BMP180;32805;53.556;9.944;2022-10-31T01:35:59;101680.00;;;14.40
17142;BMP180;32805;53.556;9.944;2022-10-31T01:38:27;101680.00;;;14.30
17142;BMP180;32805;53.556;9.944;2022-10-31T01:40:55;101672.00;;;14.30
17142;BMP180;32805;53.556;9.944;2022-10-31T01:43:22;101680.00;;;14.30
17142;BMP180;32805;53.556;9.944;2022-10-31T01:45:52;101683.00;;;14.20
17142;BMP180;32805;53.556;9.944;2022-10-31T01:48:24;101677.00;;;14.30
17142;BMP180;32805;53.556;9.944;2022-10-31T01:50:55;101685.00;;;14.20
17142;BMP180;32805;53.556;9.944;2022-10-31T01:53:23;101683.00;;;14.10
17142;BMP180;32805;53.556;9.944;2022-10-31T01:55:52;101686.00;;;14.10
17142;BMP180;32805;53.556;9.944;2022-10-31T01:58:22;101695.00;;;14.20
17142;BMP180;32805;53.556;9.944;2022-10-31T02:00:54;101706.00;;;14.20
17142;BMP180;32805;53.556;9.944;2022-10-31T02:03:28;101697.00;;;14.20
17142;BMP180;32805;53.556;9.944;2022-10-31T02:05:58;101697.00;;;14.30
17142;BMP180;32805;53.556;9.944;2022-10-31T02:08:28;101702.00;;;14.20
17142;BMP180;32805;53.556;9.944;2022-10-31T02:10:57;101704.00;;;14.20
17142;BMP180;32805;53.556;9.944;2022-10-31T02:13:25;101697.00;;;14.10
17142;BMP180;32805;53.556;9.944;2022-10-31T02:15:56;101698.00;;;14.00
17142;BMP180;32805;53.556;9.944;2022-10-31T02:18:25;101708.00;;;14.00
17142;BMP180;32805;53.556;9.944;2022-10-31T02:21:02;101700.00;;;14.00
17142;BMP180;32805;53.556;9.944;2022-10-31T02:23:51;101713.00;;;13.90
17142;BMP180;32805;53.556;9.944;2022-10-31T02:26:43;101712.00;;;13.80
17142;BMP180;32805;53.556;9.944;2022-10-31T02:29:35;101705.00;;;13.70
17142;BMP180;32805;53.556;9.944;2022-10-31T02:32:14;101703.00;;;13.80
17142;BMP180;32805;53.556;9.944;2022-10-31T02:34:50;101729.00;;;13.70
17142;BMP180;32805;53.556;9.944;2022-10-31T02:37:24;101730.00;;;13.60
17142;BMP180;32805;53.556;9.944;2022-10-31T02:39:56;101726.00;;;13.60
17142;BMP180;32805;53.556;9.944;2022-10-31T02:42:50;101730.00;;;13.60
17142;BMP180;32805;53.556;9.944;2022-10-31T02:45:24;101724.00;;;13.60
17142;BMP180;32805;53.556;9.944;2022-10-31T02:47:58;101732.00;;;13.70
17142;BMP180;32805;53.556;9.944;2022-10-31T02:50:31;101730.00;;;13.60
17142;BMP180;32805;53.556;9.944;2022-10-31T02:53:02;101728.00;;;13.60
17142;BMP180;32805;53.556;9.944;2022-10-31T02:55:49;101728.00;;;13.50
17142;BMP180;32805;53.556;9.944;2022-10-31T02:58:21;101726.00;;;13.50
17142;BMP180;32805;53.556;9.944;2022-10-31T03:01:11;101726.00;;;13.50
17142;BMP180;32805;53.556;9.944;2022-10-31T03:04:02;101741.00;;;13.40
17142;BMP180;32805;53.556;9.944;2022-10-31T03:06:37;101739.00;;;13.40
17142;BMP180;32805;53.556;9.944;2022-10-31T03:09:12;101738.00;;;13.30
17142;BMP180;32805;53.556;9.944;2022-10-31T03:11:49;101740.00;;;13.30
17142;BMP180;32805;53.556;9.944;2022-10-31T03:14:24;101740.00;;;13.30
17142;BMP180;32805;53.556;9.944;2022-10-31T03:16:59;101733.00;;;13.30
17142;BMP180;32805;53.556;9.944;2022-10-31T03:19:33;101745.00;;;13.20
17142;BMP180;32805;53.556;9.944;2022-10-31T03:22:04;101750.00;;;13.30
17142;BMP180;32805;53.556;9.944;2022-10-31T03:24:36;101752.00;;;13.20
17142;BMP180;32805;53.556;9.944;2022-10-31T03:27:07;101746.00;;;13.20
17142;BMP180;32805;53.556;9.944;2022-10-31T03:29:36;101756.00;;;13.20
17142;BMP180;32805;53.556;9.944;2022-10-31T03:32:08;101757.00;;;13.20
17142;BMP180;32805;53.556;9.944;2022-10-31T03:34:41;101754.00;;;13.20
17142;BMP180;32805;53.556;9.944;2022-10-31T03:37:13;101759.00;;;13.20
17142;BMP180;32805;53.556;9.944;2022-10-31T03:39:43;101770.00;;;13.20
17142;BMP180;32805;53.556;9.944;2022-10-31T03:42:14;101773.00;;;13.20
17142;BMP180;32805;53.556;9.944;2022-10-31T03:44:46;101768.00;;;13.20
17142;BMP180;32805;53.556;9.944;2022-10-31T03:47:15;101773.00;;;13.30
17142;BMP180;32805;53.556;9.944;2022-10-31T03:49:44;101774.00;;;13.30
17142;BMP180;32805;53.556;9.944;2022-10-31T03:52:19;101775.00;;;13.30
17142;BMP180;32805;53.556;9.944;2022-10-31T03:54:53;101775.00;;;13.20
17142;BMP180;32805;53.556;9.944;2022-10-31T03:57:25;101786.00;;;13.20
17142;BMP180;32805;53.556;9.944;2022-10-31T03:59:58;101787.00;;;13.40
17142;BMP180;32805;53.556;9.944;2022-10-31T04:02:30;101796.00;;;13.30
17142;BMP180;32805;53.556;9.944;2022-10-31T04:05:01;101796.00;;;13.30
17142;BMP180;32805;53.556;9.944;2022-10-31T04:07:32;101789.00;;;13.20
17142;BMP180;32805;53.556;9.944;2022-10-31T04:10:05;101796.00;;;13.20
17142;BMP180;32805;53.556;9.944;2022-10-31T04:12:35;101799.00;;;13.20
17142;BMP180;32805;53.556;9.944;2022-10-31T04:15:22;101805.00;;;13.10
17142;BMP180;32805;53.556;9.944;2022-10-31T04:17:52;101796.00;;;13.20
17142;BMP180;32805;53.556;9.944;2022-10-31T04:20:31;101802.00;;;13.20
17142;BMP180;32805;53.556;9.944;2022-10-31T04:23:00;101807.00;;;13.30
17142;BMP180;32805;53.556;9.944;2022-10-31T04:25:28;101799.00;;;13.40
17142;BMP180;32805;53.556;9.944;2022-10-31T04:27:57;101815.00;;;13.50
17142;BMP180;32805;53.556;9.944;2022-10-31T04:30:25;101804.00;;;13.50
17142;BMP180;32805;53.556;9.944;2022-10-31T04:32:53;101806.00;;;13.80
17142;BMP180;32805;53.556;9.944;2022-10-31T04:35:21;101813.00;;;13.80
17142;BMP180;32805;53.556;9.944;2022-10-31T04:37:50;101807.00;;;13.60
17142;BMP180;32805;53.556;9.944;2022-10-31T04:40:18;101813.00;;;13.50
17142;BMP180;32805;53.556;9.944;2022-10-31T04:43:04;101820.00;;;13.40
17142;BMP180;32805;53.556;9.944;2022-10-31T04:45:32;101816.00;;;13.30
17142;BMP180;32805;53.556;9.944;2022-10-31T04:48:01;101817.00;;;13.30
17142;BMP180;32805;53.556;9.944;2022-10-31T04:50:32;101813.00;;;13.20
17142;BMP180;32805;53.556;9.944;2022-10-31T04:53:02;101810.00;;;13.20
17142;BMP180;32805;53.556;9.944;2022-10-31T04:55:37;101812.00;;;13.20
17142;BMP180;32805;53.556;9.944;2022-10-31T04:58:16;101813.00;;;13.30
17142;BMP180;32805;53.556;9.944;2022-10-31T05:00:44;101824.00;;;13.20
17142;BMP180;32805;53.556;9.944;2022-10-31T05:03:13;101823.00;;;13.30
17142;BMP180;32805;53.556;9.944;2022-10-31T05:05:41;101819.00;;;13.20
17142;BMP180;32805;53.556;9.944;2022-10-31T05:08:10;101819.00;;;13.40
17142;BMP180;32805;53.556;9.944;2022-10-31T05:10:38;101823.00;;;13.50
17142;BMP180;32805;53.556;9.944;2022-10-31T05:13:05;101826.00;;;13.40
17142;BMP180;32805;53.556;9.944;2022-10-31T05:16:02;101824.00;;;13.40
17142;BMP180;32805;53.556;9.944;2022-10-31T05:18:49;101828.00;;;13.60
17142;BMP180;32805;53.556;9.944;2022-10-31T05:21:35;101818.00;;;13.50
17142;BMP180;32805;53.556;9.944;2022-10-31T05:24:04;101824.00;;;13.40
17142;BMP180;32805;53.556;9.944;2022-10-31T05:26:33;101816.00;;;13.40
17142;BMP180;32805;53.556;9.944;2022-10-31T05:29:01;101825.00;;;13.30
17142;BMP180;32805;53.556;9.944;2022-10-31T05:31:29;101828.00;;;13.40
17142;BMP180;32805;53.556;9.944;2022-10-31T05:33:56;101833.00;;;13.30
17142;BMP180;32805;53.556;9.944;2022-10-31T05:36:42;101823.00;;;13.50
17142;BMP180;32805;53.556;9.944;2022-10-31T05:39:15;101823.00;;;13.40
17142;BMP180;32805;53.556;9.944;2022-10-31T05:41:46;101814.00;;;13.30
17142;BMP180;32805;53.556;9.944;2022-10-31T05:44:27;101815.00;;;13.40
17142;BMP180;32805;53.556;9.944;2022-10-31T05:47:08;101805.00;;;13.60
17142;BMP180;32805;53.556;9.944;2022-10-31T05:49:54;101817.00;;;13.60
17142;BMP180;32805;53.556;9.944;2022-10-31T05:52:40;101826.00;;;13.80
17142;BMP180;32805;53.556;9.944;2022-10-31T05:55:30;101825.00;;;13.80
17142;BMP180;32805;53.556;9.944;2022-10-31T05:58:10;101829.00;;;13.70
17142;BMP180;32805;53.556;9.944;2022-10-31T06:00:42;101817.00;;;13.50
17142;BMP180;32805;53.556;9.944;2022-10-31T06:03:11;101823.00;;;13.50
17142;BMP180;32805;53.556;9.944;2022-10-31T06:05:46;101837.00;;;13.40
17142;BMP180;32805;53.556;9.944;2022-10-31T06:08:22;101828.00;;;13.50
17142;BMP180;32805;53.556;9.944;2022-10-31T06:10:51;101828.00;;;13.60
17142;BMP180;32805;53.556;9.944;2022-10-31T06:13:29;101832.00;;;13.50
17142;BMP180;32805;53.556;9.944;2022-10-31T06:16:12;101836.00;;;13.50
17142;BMP180;32805;53.556;9.944;2022-10-31T06:18:39;101837.00;;;13.40
17142;BMP180;32805;53.556;9.944;2022-10-31T06:21:08;101850.00;;;13.30
17142;BMP180;32805;53.556;9.944;2022-10-31T06:23:40;101852.00;;;13.30
17142;BMP180;32805;53.556;9.944;2022-10-31T06:26:35;101845.00;;;13.50
17142;BMP180;32805;53.556;9.944;2022-10-31T06:29:03;101845.00;;;13.90
17142;BMP180;32805;53.556;9.944;2022-10-31T06:31:54;101834.00;;;13.80
17142;BMP180;32805;53.556;9.944;2022-10-31T06:34:21;101827.00;;;13.70
17142;BMP180;32805;53.556;9.944;2022-10-31T06:36:49;101842.00;;;13.60
17142;BMP180;32805;53.556;9.944;2022-10-31T06:39:20;101853.00;;;13.90
17142;BMP180;32805;53.556;9.944;2022-10-31T06:41:49;101845.00;;;13.60
17142;BMP180;32805;53.556;9.944;2022-10-31T06:44:19;101842.00;;;13.80
17142;BMP180;32805;53.556;9.944;2022-10-31T06:46:53;101854.00;;;13.70
17142;BMP180;32805;53.556;9.944;2022-10-31T06:49:40;101863.00;;;13.80
17142;BMP180;32805;53.556;9.944;2022-10-31T06:52:12;101871.00;;;13.60
17142;BMP180;32805;53.556;9.944;2022-10-31T06:54:40;101879.00;;;13.40
17142;BMP180;32805;53.556;9.944;2022-10-31T06:57:09;101883.00;;;13.40
17142;BMP180;32805;53.556;9.944;2022-10-31T06:59:38;101873.00;;;13.30
17142;BMP180;32805;53.556;9.944;2022-10-31T07:02:07;101881.00;;;13.20
17142;BMP180;32805;53.556;9.944;2022-10-31T07:04:37;101883.00;;;13.20
17142;BMP180;32805;53.556;9.944;2022-10-31T07:07:05;101895.00;;;13.30
17142;BMP180;32805;53.556;9.944;2022-10-31T07:09:34;101893.00;;;13.80
17142;BMP180;32805;53.556;9.944;2022-10-31T07:12:04;101901.00;;;14.30
17142;BMP180;32805;53.556;9.944;2022-10-31T07:14:37;101893.00;;;14.20
17142;BMP180;32805;53.556;9.944;2022-10-31T07:17:05;101903.00;;;14.20
17142;BMP180;32805;53.556;9.944;2022-10-31T07:19:39;101898.00;;;14.20
17142;BMP180;32805;53.556;9.944;2022-10-31T07:22:08;101897.00;;;14.30
17142;BMP180;32805;53.556;9.944;2022-10-31T07:24:38;101901.00;;;14.30
17142;BMP180;32805;53.556;9.944;2022-10-31T07:27:29;101902.00;;;14.40
17142;BMP180;32805;53.556;9.944;2022-10-31T07:30:11;101898.00;;;14.30
17142;BMP180;32805;53.556;9.944;2022-10-31T07:32:41;101901.00;;;14.00
17142;BMP180;32805;53.556;9.944;2022-10-31T07:35:14;101909.00;;;13.90
17142;BMP180;32805;53.556;9.944;2022-10-31T07:37:46;101910.00;;;13.70
17142;BMP180;32805;53.556;9.944;2022-10-31T07:40:15;101915.00;;;13.50
17142;BMP180;32805;53.556;9.944;2022-10-31T07:42:45;101913.00;;;13.40
17142;BMP180;32805;53.556;9.944;2022-10-31T07:45:38;101901.00;;;13.30
17142;BMP180;32805;53.556;9.944;2022-10-31T07:48:25;101916.00;;;13.20
17142;BMP180;32805;53.556;9.944;2022-10-31T07:51:11;101932.00;;;13.10
17142;BMP180;32805;53.556;9.944;2022-10-31T07:53:58;101934.00;;;13.70
17142;BMP180;32805;53.556;9.944;2022-10-31T07:56:31;101923.00;;;13.70
17142;BMP180;32805;53.556;9.944;2022-10-31T07:58:59;101924.00;;;13.40
17142;BMP180;32805;53.556;9.944;2022-10-31T08:01:28;101923.00;;;13.30
17142;BMP180;32805;53.556;9.944;2022-10-31T08:04:15;101910.00;;;13.60
17142;BMP180;32805;53.556;9.944;2022-10-31T08:07:02;101918.00;;;13.60
17142;BMP180;32805;53.556;9.944;2022-10-31T08:09:33;101919.00;;;13.50
17142;BMP180;32805;53.556;9.944;2022-10-31T08:12:08;101910.00;;;13.70
17142;BMP180;32805;53.556;9.944;2022-10-31T08:14:36;101917.00;;;13.60
17142;BMP180;32805;53.556;9.944;2022-10-31T08:17:06;101919.00;;;13.80
17142;BMP180;32805;53.556;9.944;2022-10-31T08:19:43;101911.00;;;14.10
17142;BMP180;32805;53.556;9.944;2022-10-31T08:22:13;101914.00;;;13.90
17142;BMP180;32805;53.556;9.944;2022-10-31T08:24:41;101900.00;;;13.70
17142;BMP180;32805;53.556;9.944;2022-10-31T08:27:10;101906.00;;;13.60
17142;BMP180;32805;53.556;9.944;2022-10-31T08:29:38;101912.00;;;13.40
17142;BMP180;32805;53.556;9.944;2022-10-31T08:32:08;101921.00;;;13.60
17142;BMP180;32805;53.556;9.944;2022-10-31T08:34:54;101917.00;;;13.60
17142;BMP180;32805;53.556;9.944;2022-10-31T08:37:41;101930.00;;;13.60
17142;BMP180;32805;53.556;9.944;2022-10-31T08:40:10;101940.00;;;13.60
17142;BMP180;32805;53.556;9.944;2022-10-31T08:42:39;101925.00;;;14.00
17142;BMP180;32805;53.556;9.944;2022-10-31T08:45:08;101930.00;;;14.20
17142;BMP180;32805;53.556;9.944;2022-10-31T08:47:38;101934.00;;;14.40
17142;BMP180;32805;53.556;9.944;2022-10-31T08:50:07;101927.00;;;14.50
17142;BMP180;32805;53.556;9.944;2022-10-31T08:52:35;101920.00;;;14.40
17142;BMP180;32805;53.556;9.944;2022-10-31T08:55:22;101922.00;;;14.40
17142;BMP180;32805;53.556;9.944;2022-10-31T08:58:18;101919.00;;;14.20
17142;BMP180;32805;53.556;9.944;2022-10-31T09:00:54;101929.00;;;14.50
17142;BMP180;32805;53.556;9.944;2022-10-31T09:03:25;101920.00;;;14.50
17142;BMP180;32805;53.556;9.944;2022-10-31T09:05:55;101917.00;;;14.70
17142;BMP180;32805;53.556;9.944;2022-10-31T09:08:23;101918.00;;;14.60
17142;BMP180;32805;53.556;9.944;2022-10-31T09:10:51;101912.00;;;14.60
17142;BMP180;32805;53.556;9.944;2022-10-31T09:13:38;101905.00;;;14.60
17142;BMP180;32805;53.556;9.944;2022-10-31T09:16:29;101905.00;;;14.60
17142;BMP180;32805;53.556;9.944;2022-10-31T09:18:59;101910.00;;;14.70
17142;BMP180;32805;53.556;9.944;2022-10-31T09:21:26;101908.00;;;15.00
17142;BMP180;32805;53.556;9.944;2022-10-31T09:23:57;101899.00;;;15.00
17142;BMP180;32805;53.556;9.944;2022-10-31T09:26:25;101900.00;;;14.90
17142;BMP180;32805;53.556;9.944;2022-10-31T09:28:55;101895.00;;;14.60
17142;BMP180;32805;53.556;9.944;2022-10-31T09:31:24;101902.00;;;14.20
17142;BMP180;32805;53.556;9.944;2022-10-31T09:33:52;101906.00;;;14.00
17142;BMP180;32805;53.556;9.944;2022-10-31T09:36:42;101904.00;;;13.90
17142;BMP180;32805;53.556;9.944;2022-10-31T09:39:16;101915.00;;;14.00
17142;BMP180;32805;53.556;9.944;2022-10-31T09:41:56;101904.00;;;14.30
17142;BMP180;32805;53.556;9.944;2022-10-31T09:44:33;101922.00;;;14.40
17142;BMP180;32805;53.556;9.944;2022-10-31T09:47:13;101921.00;;;14.60
17142;BMP180;32805;53.556;9.944;2022-10-31T09:50:09;101929.00;;;15.00
17142;BMP180;32805;53.556;9.944;2022-10-31T09:52:45;101923.00;;;15.30
17142;BMP180;32805;53.556;9.944;2022-10-31T09:55:18;101932.00;;;15.40
17142;BMP180;32805;53.556;9.944;2022-10-31T09:57:48;101924.00;;;15.60
17142;BMP180;32805;53.556;9.944;2022-10-31T10:00:20;101934.00;;;15.70
17142;BMP180;32805;53.556;9.944;2022-10-31T10:02:52;101931.00;;;15.40
17142;BMP180;32805;53.556;9.944;2022-10-31T10:05:26;101937.00;;;15.00
17142;BMP180;32805;53.556;9.944;2022-10-31T10:08:07;101924.00;;;14.80
17142;BMP180;32805;53.556;9.944;2022-10-31T10:11:12;101929.00;;;14.60
17142;BMP180;32805;53.556;9.944;2022-10-31T10:14:01;101929.00;;;14.60
17142;BMP180;32805;53.556;9.944;2022-10-31T10:16:42;101924.00;;;14.40
17142;BMP180;32805;53.556;9.944;2022-10-31T10:19:30;101930.00;;;14.30
17142;BMP180;32805;53.556;9.944;2022-10-31T10:22:05;101934.00;;;14.90
17142;BMP180;32805;53.556;9.944;2022-10-31T10:24:53;101931.00;;;15.10
17142;BMP180;32805;53.556;9.944;2022-10-31T10:27:39;101923.00;;;15.00
17142;BMP180;32805;53.556;9.944;2022-10-31T10:30:13;101930.00;;;14.90
17142;BMP180;32805;53.556;9.944;2022-10-31T10:32:45;101935.00;;;14.90
17142;BMP180;32805;53.556;9.944;2022-10-31T10:35:22;101932.00;;;14.90
17142;BMP180;32805;53.556;9.944;2022-10-31T10:37:56;101924.00;;;14.70
17142;BMP180;32805;53.556;9.944;2022-10-31T10:40:28;101920.00;;;14.80
17142;BMP180;32805;53.556;9.944;2022-10-31T10:45:50;101922.00;;;14.60
17142;BMP180;32805;53.556;9.944;2022-10-31T10:48:42;101908.00;;;14.60
17142;BMP180;32805;53.556;9.944;2022-10-31T10:51:20;101906.00;;;14.50
17142;BMP180;32805;53.556;9.944;2022-10-31T10:54:17;101902.00;;;14.70
17142;BMP180;32805;53.556;9.944;2022-10-31T10:56:56;101911.00;;;14.70
17142;BMP180;32805;53.556;9.944;2022-10-31T10:59:28;101912.00;;;14.70
17142;BMP180;32805;53.556;9.944;2022-10-31T11:01:58;101907.00;;;15.00
17142;BMP180;32805;53.556;9.944;2022-10-31T11:04:29;101900.00;;;15.30
17142;BMP180;32805;53.556;9.944;2022-10-31T11:07:02;101900.00;;;15.50
17142;BMP180;32805;53.556;9.944;2022-10-31T11:09:30;101897.00;;;15.60
17142;BMP180;32805;53.556;9.944;2022-10-31T11:12:07;101892.00;;;15.40
17142;BMP180;32805;53.556;9.944;2022-10-31T11:14:42;101891.00;;;15.70
17142;BMP180;32805;53.556;9.944;2022-10-31T11:17:20;101896.00;;;15.80
17142;BMP180;32805;53.556;9.944;2022-10-31T11:19:48;101884.00;;;15.90
17142;BMP180;32805;53.556;9.944;2022-10-31T11:22:26;101885.00;;;16.00
17142;BMP180;32805;53.556;9.944;2022-10-31T11:24:55;101880.00;;;15.80
17142;BMP180;32805;53.556;9.944;2022-10-31T11:27:26;101883.00;;;15.80
17142;BMP180;32805;53.556;9.944;2022-10-31T11:30:04;101879.00;;;15.70
17142;BMP180;32805;53.556;9.944;2022-10-31T11:32:32;101875.00;;;15.80
17142;BMP180;32805;53.556;9.944;2022-10-31T11:35:02;101870.00;;;16.00
17142;BMP180;32805;53.556;9.944;2022-10-31T11:37:33;101883.00;;;16.20
17142;BMP180;32805;53.556;9.944;2022-10-31T11:40:05;101886.00;;;16.10
17142;BMP180;32805;53.556;9.944;2022-10-31T11:42:38;101870.00;;;16.30
17142;BMP180;32805;53.556;9.944;2022-10-31T11:45:14;101892.00;;;16.10
17142;BMP180;32805;53.556;9.944;2022-10-31T11:47:45;101883.00;;;16.20
17142;BMP180;32805;53.556;9.944;2022-10-31T11:50:20;101876.00;;;16.10
17142;BMP180;32805;53.556;9.944;2022-10-31T11:52:50;101884.00;;;15.60
17142;BMP180;32805;53.556;9.944;2022-10-31T11:55:30;101883.00;;;15.80
17142;BMP180;32805;53.556;9.944;2022-10-31T11:58:00;101870.00;;;15.70
17142;BMP180;32805;53.556;9.944;2022-10-31T12:00:30;101862.00;;;15.90
17142;BMP180;32805;53.556;9.944;2022-10-31T12:03:11;101858.00;;;15.90
17142;BMP180;32805;53.556;9.944;2022-10-31T12:05:41;101857.00;;;16.00
17142;BMP180;32805;53.556;9.944;2022-10-31T12:08:12;101848.00;;;16.00
17142;BMP180;32805;53.556;9.944;2022-10-31T12:10:48;101853.00;;;16.10
17142;BMP180;32805;53.556;9.944;2022-10-31T12:13:32;101850.00;;;16.00
17142;BMP180;32805;53.556;9.944;2022-10-31T12:16:06;101852.00;;;15.70
17142;BMP180;32805;53.556;9.944;2022-10-31T12:18:56;101861.00;;;15.70
17142;BMP180;32805;53.556;9.944;2022-10-31T12:21:37;101864.00;;;16.00
17142;BMP180;32805;53.556;9.944;2022-10-31T12:24:18;101856.00;;;16.00
17142;BMP180;32805;53.556;9.944;2022-10-31T12:26:56;101847.00;;;15.90
17142;BMP180;32805;53.556;9.944;2022-10-31T12:29:48;101844.00;;;16.00
17142;BMP180;32805;53.556;9.944;2022-10-31T12:32:27;101849.00;;;15.90
17142;BMP180;32805;53.556;9.944;2022-10-31T12:35:09;101850.00;;;15.70
17142;BMP180;32805;53.556;9.944;2022-10-31T12:37:50;101844.00;;;15.60
17142;BMP180;32805;53.556;9.944;2022-10-31T12:40:53;101851.00;;;15.60
17142;BMP180;32805;53.556;9.944;2022-10-31T12:43:34;101853.00;;;15.80
17142;BMP180;32805;53.556;9.944;2022-10-31T12:46:07;101849.00;;;15.90
17142;BMP180;32805;53.556;9.944;2022-10-31T12:48:50;101847.00;;;15.90
17142;BMP180;32805;53.556;9.944;2022-10-31T12:51:31;101843.00;;;15.90
17142;BMP180;32805;53.556;9.944;2022-10-31T12:54:15;101843.00;;;16.10
17142;BMP180;32805;53.556;9.944;2022-10-31T12:56:50;101833.00;;;16.30
17142;BMP180;32805;53.556;9.944;2022-10-31T12:59:24;101838.00;;;16.30
17142;BMP180;32805;53.556;9.944;2022-10-31T13:02:00;101827.00;;;16.40
17142;BMP180;32805;53.556;9.944;2022-10-31T13:04:37;101820.00;;;16.50
17142;BMP180;32805;53.556;9.944;2022-10-31T13:07:12;101821.00;;;16.50
17142;BMP180;32805;53.556;9.944;2022-10-31T13:09:45;101816.00;;;16.30
17142;BMP180;32805;53.556;9.944;2022-10-31T13:12:18;101811.00;;;16.10
17142;BMP180;32805;53.556;9.944;2022-10-31T13:14:49;101810.00;;;15.90
17142;BMP180;32805;53.556;9.944;2022-10-31T13:17:24;101824.00;;;15.80
17142;BMP180;32805;53.556;9.944;2022-10-31T13:19:58;101805.00;;;15.80
17142;BMP180;32805;53.556;9.944;2022-10-31T13:22:32;101807.00;;;15.80
17142;BMP180;32805;53.556;9.944;2022-10-31T13:25:09;101806.00;;;15.50
17142;BMP180;32805;53.556;9.944;2022-10-31T13:27:44;101799.00;;;15.50
17142;BMP180;32805;53.556;9.944;2022-10-31T13:30:14;101797.00;;;15.60
17142;BMP180;32805;53.556;9.944;2022-10-31T13:32:47;101794.00;;;15.70
17142;BMP180;32805;53.556;9.944;2022-10-31T13:35:20;101794.00;;;15.80
17142;BMP180;32805;53.556;9.944;2022-10-31T13:37:56;101789.00;;;15.80
17142;BMP180;32805;53.556;9.944;2022-10-31T13:40:34;101781.00;;;16.10
17142;BMP180;32805;53.556;9.944;2022-10-31T13:43:10;101784.00;;;16.20
17142;BMP180;32805;53.556;9.944;2022-10-31T13:46:00;101773.00;;;16.10
17142;BMP180;32805;53.556;9.944;2022-10-31T13:57:58;101762.00;;;15.90
17142;BMP180;32805;53.556;9.944;2022-10-31T14:00:26;101761.00;;;16.00
17142;BMP180;32805;53.556;9.944;2022-10-31T14:02:56;101755.00;;;16.30
17142;BMP180;32805;53.556;9.944;2022-10-31T14:05:26;101750.00;;;16.20
17142;BMP180;32805;53.556;9.944;2022-10-31T14:07:56;101740.00;;;16.30
17142;BMP180;32805;53.556;9.944;2022-10-31T14:10:26;101746.00;;;16.20
17142;BMP180;32805;53.556;9.944;2022-10-31T14:13:05;101737.00;;;16.30
17142;BMP180;32805;53.556;9.944;2022-10-31T14:15:36;101726.00;;;16.30
17142;BMP180;32805;53.556;9.944;2022-10-31T14:18:06;101737.00;;;16.20
17142;BMP180;32805;53.556;9.944;2022-10-31T14:20:45;101718.00;;;16.30
17142;BMP180;32805;53.556;9.944;2022-10-31T14:23:41;101718.00;;;16.20
17142;BMP180;32805;53.556;9.944;2022-10-31T14:26:19;101717.00;;;16.10
17142;BMP180;32805;53.556;9.944;2022-10-31T14:28:50;101706.00;;;16.10
17142;BMP180;32805;53.556;9.944;2022-10-31T14:31:30;101705.00;;;16.10
17142;BMP180;32805;53.556;9.944;2022-10-31T14:34:00;101704.00;;;16.00
17142;BMP180;32805;53.556;9.944;2022-10-31T14:36:37;101698.00;;;16.00
17142;BMP180;32805;53.556;9.944;2022-10-31T14:39:14;101684.00;;;15.90
17142;BMP180;32805;53.556;9.944;2022-10-31T14:41:55;101680.00;;;15.90
17142;BMP180;32805;53.556;9.944;2022-10-31T14:44:51;101668.00;;;16.00
17142;BMP180;32805;53.556;9.944;2022-10-31T14:47:31;101658.00;;;15.90
17142;BMP180;32805;53.556;9.944;2022-10-31T14:50:20;101673.00;;;15.70